Time;durP1;ratioP1;P1;durP2;ratioP2;P2;SDS_P1;SDS_P2;PMS_P1;PMS_P2;Temp;Humidity;BMP_temperature;BMP_pressure;BME280_temperature;BME280_humidity;BME280_pressure;Samples;Min_cycle;Max_cycle;Signal;HPM_P1;HPM_P2
2024/03/16 00:01:46;;;;;;;1.83;1.70;;;11.80;75.70;;;;;;5003515;28;20325;-60
2024/03/16 00:04:12;;;;;;;1.57;1.30;;;11.80;75.50;;;;;;5013465;28;20234;-61
2024/03/16 00:06:39;;;;;;;1.60;1.50;;;11.70;75.80;;;;;;5011277;28;20218;-61
2024/03/16 00:09:06;;;;;;;1.60;1.50;;;11.70;76.10;;;;;;5009790;28;20218;-60
2024/03/16 00:11:33;;;;;;;2.07;1.40;;;11.60;76.20;;;;;;5013279;28;20778;-61
2024/03/16 00:14:00;;;;;;;2.17;1.27;;;11.70;75.60;;;;;;5013390;28;20218;-61
2024/03/16 00:16:27;;;;;;;2.80;1.77;;;11.70;75.70;;;;;;5000578;28;20280;-61
2024/03/16 00:18:53;;;;;;;2.60;1.70;;;11.70;75.80;;;;;;5011242;28;20215;-61
2024/03/16 00:21:20;;;;;;;1.87;1.40;;;11.60;75.90;;;;;;5003394;28;20238;-61
2024/03/16 00:23:47;;;;;;;1.97;1.70;;;11.70;75.50;;;;;;5013088;28;20215;-61
2024/03/16 00:26:14;;;;;;;1.93;1.60;;;11.70;75.70;;;;;;5012726;28;20666;-61
2024/03/16 00:28:41;;;;;;;2.23;1.60;;;11.60;76.00;;;;;;5011248;28;20205;-61
2024/03/16 00:31:07;;;;;;;1.70;1.60;;;11.70;76.20;;;;;;5008014;28;20206;-60
2024/03/16 00:33:34;;;;;;;3.07;1.63;;;11.60;75.50;;;;;;5000509;28;20228;-61
2024/03/16 00:36:00;;;;;;;1.43;1.33;;;11.70;74.60;;;;;;5012346;28;20662;-61
2024/03/16 00:38:27;;;;;;;1.60;1.50;;;11.70;75.00;;;;;;5012841;28;20211;-60
2024/03/16 00:40:54;;;;;;;1.90;1.67;;;11.70;74.30;;;;;;5011447;28;20332;-61
2024/03/16 00:43:20;;;;;;;2.97;1.27;;;11.80;74.10;;;;;;5008195;28;20242;-61
2024/03/16 00:45:47;;;;;;;1.67;1.57;;;11.80;74.10;;;;;;5010109;28;20206;-60
2024/03/16 00:48:14;;;;;;;2.40;1.50;;;11.70;74.30;;;;;;5000926;28;20207;-61
2024/03/16 00:50:41;;;;;;;2.00;1.77;;;11.60;74.50;;;;;;5005663;28;20288;-61
2024/03/16 00:53:09;;;;;;;1.80;1.70;;;11.70;74.00;;;;;;5007248;28;20624;-60
2024/03/16 00:55:36;;;;;;;1.53;1.40;;;11.70;73.70;;;;;;5000042;28;20301;-61
2024/03/16 00:58:03;;;;;;;1.70;1.60;;;11.70;73.70;;;;;;5013028;28;20253;-61
2024/03/16 01:00:31;;;;;;;1.60;1.50;;;11.80;73.40;;;;;;5011633;28;20237;-61
2024/03/16 01:02:57;;;;;;;1.50;1.40;;;11.80;73.20;;;;;;5003147;28;20222;-61
2024/03/16 01:05:26;;;;;;;1.67;1.57;;;11.70;73.60;;;;;;5007226;28;20199;-61
2024/03/16 01:07:53;;;;;;;1.70;1.60;;;11.90;73.20;;;;;;5002092;28;20217;-61
2024/03/16 01:10:19;;;;;;;2.17;1.70;;;11.90;73.20;;;;;;5011487;28;20216;-61
2024/03/16 01:12:46;;;;;;;2.10;1.70;;;11.80;73.70;;;;;;5011969;28;20253;-60
2024/03/16 01:15:12;;;;;;;1.93;1.57;;;11.80;74.00;;;;;;5009766;28;20215;-61
2024/03/16 01:17:39;;;;;;;2.00;1.47;;;11.70;74.40;;;;;;5003415;28;20218;-61
2024/03/16 01:20:09;;;;;;;1.67;1.50;;;11.60;75.60;;;;;;5011321;28;20216;-61
2024/03/16 01:22:35;;;;;;;1.50;1.40;;;11.60;76.20;;;;;;5002929;28;20234;-61
2024/03/16 01:25:02;;;;;;;1.77;1.60;;;11.60;76.20;;;;;;5011102;28;20211;-61
2024/03/16 01:27:29;;;;;;;1.70;1.60;;;11.60;75.90;;;;;;5004916;28;20623;-61
2024/03/16 01:29:56;;;;;;;1.73;1.63;;;11.50;76.20;;;;;;5003449;28;20264;-61
2024/03/16 01:32:22;;;;;;;1.60;1.50;;;11.40;76.10;;;;;;5009237;28;20304;-61
2024/03/16 01:34:49;;;;;;;1.53;1.43;;;11.40;75.90;;;;;;5006402;28;20661;-61
2024/03/16 01:37:16;;;;;;;2.03;1.70;;;11.40;75.40;;;;;;5008437;28;20210;-61
2024/03/16 01:39:42;;;;;;;1.90;1.57;;;11.40;75.10;;;;;;5006364;28;20293;-60
2024/03/16 01:42:09;;;;;;;1.57;1.40;;;11.40;75.00;;;;;;5009620;28;20243;-61
2024/03/16 01:44:36;;;;;;;1.70;1.57;;;11.30;75.70;;;;;;5011239;28;20213;-60
2024/03/16 01:47:03;;;;;;;2.57;1.70;;;11.30;76.40;;;;;;5008706;28;20676;-60
2024/03/16 01:49:29;;;;;;;1.87;1.50;;;11.20;77.60;;;;;;5009993;28;20218;-60
2024/03/16 01:51:56;;;;;;;1.60;1.50;;;11.20;78.90;;;;;;5008825;28;20606;-61
2024/03/16 01:54:23;;;;;;;1.60;1.50;;;11.20;81.50;;;;;;5011459;28;20217;-61
2024/03/16 01:56:49;;;;;;;1.60;1.50;;;11.10;83.90;;;;;;5009033;28;20241;-61
2024/03/16 01:59:16;;;;;;;2.50;1.73;;;11.10;85.30;;;;;;4998608;28;20569;-60
2024/03/16 02:01:43;;;;;;;1.50;1.40;;;11.00;84.50;;;;;;5001018;28;20234;-60
2024/03/16 02:04:10;;;;;;;1.30;1.20;;;11.00;85.60;;;;;;5004958;28;20202;-60
2024/03/16 02:06:36;;;;;;;1.50;1.40;;;10.90;85.70;;;;;;5003960;28;20216;-60
2024/03/16 02:09:03;;;;;;;1.80;1.37;;;10.90;85.80;;;;;;5007102;28;20209;-60
2024/03/16 02:11:30;;;;;;;1.70;1.50;;;10.80;86.30;;;;;;5011342;28;20605;-61
2024/03/16 02:13:56;;;;;;;1.33;1.30;;;10.70;87.30;;;;;;5003517;28;20593;-61
2024/03/16 02:16:23;;;;;;;1.83;1.30;;;10.70;87.40;;;;;;5005742;28;20206;-60
2024/03/16 02:18:50;;;;;;;1.90;1.80;;;10.60;86.90;;;;;;5010966;28;20221;-61
2024/03/16 02:21:16;;;;;;;1.53;1.43;;;10.60;87.00;;;;;;5011184;28;20230;-61
2024/03/16 02:23:43;;;;;;;1.50;1.40;;;10.60;87.60;;;;;;5005403;28;20732;-61
2024/03/16 02:26:11;;;;;;;1.30;1.30;;;10.60;87.00;;;;;;5005171;28;20207;-60
2024/03/16 02:28:37;;;;;;;1.20;1.20;;;10.50;86.90;;;;;;5010916;28;20217;-60
2024/03/16 02:31:04;;;;;;;1.37;1.30;;;10.50;87.50;;;;;;5001460;28;20202;-61
2024/03/16 02:33:31;;;;;;;1.30;1.30;;;10.50;87.80;;;;;;5007552;28;20219;-61
2024/03/16 02:35:58;;;;;;;1.20;1.20;;;10.50;87.20;;;;;;5007884;28;20643;-61
2024/03/16 02:38:24;;;;;;;1.30;1.30;;;10.40;87.50;;;;;;5009399;28;20360;-61
2024/03/16 02:40:52;;;;;;;1.00;1.00;;;10.40;87.40;;;;;;5004543;28;20221;-61
2024/03/16 02:43:18;;;;;;;1.30;1.20;;;10.30;86.60;;;;;;5012391;28;20245;-61
2024/03/16 02:45:45;;;;;;;1.30;1.20;;;10.30;85.20;;;;;;5011581;28;20214;-60
2024/03/16 02:48:12;;;;;;;1.20;1.10;;;10.30;81.70;;;;;;5015856;28;20209;-61
2024/03/16 02:50:38;;;;;;;1.30;1.30;;;10.30;83.60;;;;;;5014043;28;20204;-61
2024/03/16 02:53:05;;;;;;;1.20;1.10;;;10.20;82.60;;;;;;5014819;28;20233;-61
2024/03/16 02:55:30;;;;;;;1.20;1.20;;;10.20;80.90;;;;;;5013994;28;20205;-61
2024/03/16 02:57:57;;;;;;;1.10;1.10;;;10.20;79.70;;;;;;5008360;28;20267;-60
2024/03/16 03:00:24;;;;;;;1.20;1.20;;;10.00;78.50;;;;;;5004707;28;20300;-61
2024/03/16 03:02:51;;;;;;;1.00;1.00;;;10.10;77.10;;;;;;5011862;28;20236;-61
2024/03/16 03:05:20;;;;;;;1.13;1.13;;;9.90;78.20;;;;;;5014468;28;20208;-61
2024/03/16 03:07:47;;;;;;;1.20;1.10;;;10.10;77.00;;;;;;5013588;28;20205;-61
2024/03/16 03:10:14;;;;;;;1.10;1.10;;;10.10;76.10;;;;;;5006451;28;20310;-60
2024/03/16 03:12:40;;;;;;;1.20;1.20;;;10.10;74.50;;;;;;5012242;28;20221;-60
2024/03/16 03:15:07;;;;;;;1.00;1.00;;;10.10;73.60;;;;;;5009444;28;20210;-60
2024/03/16 03:17:37;;;;;;;1.20;1.10;;;10.10;62.60;;;;;;5003937;28;20259;-61
2024/03/16 03:20:08;;;;;;;1.10;1.10;;;10.10;61.80;;;;;;5010641;28;20219;-61
2024/03/16 03:22:35;;;;;;;1.00;1.00;;;9.90;62.40;;;;;;5012001;28;20780;-61
2024/03/16 03:25:02;;;;;;;1.20;1.13;;;9.90;61.30;;;;;;5014111;28;20650;-61
2024/03/16 03:27:28;;;;;;;1.10;1.10;;;9.90;61.10;;;;;;5012361;28;20212;-61
2024/03/16 03:29:55;;;;;;;1.50;1.20;;;9.90;60.70;;;;;;5003252;28;20216;-61
2024/03/16 03:32:22;;;;;;;0.90;0.90;;;9.90;61.90;;;;;;5002403;28;20235;-61
2024/03/16 03:34:48;;;;;;;1.17;0.90;;;9.70;61.70;;;;;;5005745;28;20265;-61
2024/03/16 03:37:15;;;;;;;1.20;0.90;;;9.80;62.00;;;;;;5008781;28;20314;-61
2024/03/16 03:39:42;;;;;;;1.10;1.10;;;9.80;61.70;;;;;;5013797;28;20695;-61
2024/03/16 03:42:10;;;;;;;1.00;1.00;;;9.70;62.70;;;;;;5011577;28;20254;-61
2024/03/16 03:44:38;;;;;;;1.20;1.10;;;9.60;62.90;;;;;;5006070;28;20208;-61
2024/03/16 03:47:07;;;;;;;1.10;1.10;;;9.70;62.60;;;;;;5005040;28;20289;-61
2024/03/16 03:49:35;;;;;;;0.90;0.90;;;9.50;63.40;;;;;;5013242;28;20219;-59
2024/03/16 03:52:02;;;;;;;1.10;1.10;;;9.50;64.30;;;;;;4997558;28;20269;-59
2024/03/16 03:54:29;;;;;;;1.10;1.10;;;9.60;64.10;;;;;;5005141;28;20212;-61
2024/03/16 03:56:55;;;;;;;1.10;1.10;;;9.50;64.60;;;;;;5004618;28;20209;-61
2024/03/16 03:59:22;;;;;;;1.13;1.13;;;9.50;64.80;;;;;;5010912;28;20214;-60
2024/03/16 04:01:49;;;;;;;1.10;1.10;;;9.60;65.40;;;;;;5003625;28;20255;-61
2024/03/16 04:04:16;;;;;;;1.10;1.10;;;9.70;63.60;;;;;;5011683;28;20212;-61
2024/03/16 04:06:44;;;;;;;1.03;1.03;;;9.50;61.40;;;;;;5002844;28;20268;-61
2024/03/16 04:09:12;;;;;;;1.10;1.10;;;9.50;61.40;;;;;;5012635;28;20216;-61
2024/03/16 04:11:38;;;;;;;1.20;1.20;;;9.60;60.90;;;;;;5006217;28;20219;-61
2024/03/16 04:14:05;;;;;;;1.07;1.07;;;9.60;60.10;;;;;;5002493;28;20583;-61
2024/03/16 04:16:31;;;;;;;1.00;1.00;;;9.60;59.90;;;;;;5010487;28;20207;-61
2024/03/16 04:18:58;;;;;;;1.03;1.03;;;9.60;59.90;;;;;;5010967;28;20211;-61
2024/03/16 04:21:25;;;;;;;1.17;1.17;;;9.60;59.50;;;;;;5009246;28;20645;-61
2024/03/16 04:23:51;;;;;;;1.20;1.20;;;9.60;59.90;;;;;;5012881;28;20222;-60
2024/03/16 04:26:18;;;;;;;1.10;1.10;;;9.70;60.40;;;;;;5010970;28;20211;-61
2024/03/16 04:28:44;;;;;;;1.00;1.00;;;9.70;59.20;;;;;;5000358;28;20590;-60
2024/03/16 04:31:11;;;;;;;1.00;1.00;;;9.80;58.70;;;;;;5002509;28;20300;-61
2024/03/16 04:33:37;;;;;;;0.90;0.90;;;9.80;58.00;;;;;;5011275;28;20211;-60
2024/03/16 04:36:04;;;;;;;1.23;1.23;;;9.80;57.50;;;;;;5010866;28;20208;-60
2024/03/16 04:38:31;;;;;;;1.20;1.20;;;9.80;57.30;;;;;;5011984;28;20223;-61
2024/03/16 04:40:57;;;;;;;1.03;1.03;;;9.80;57.10;;;;;;5012648;28;20207;-61
2024/03/16 04:43:24;;;;;;;1.00;1.00;;;9.80;56.60;;;;;;5003094;28;20235;-61
2024/03/16 04:45:51;;;;;;;1.10;1.10;;;9.80;57.00;;;;;;5006994;28;20240;-61
2024/03/16 04:48:17;;;;;;;1.00;1.00;;;9.80;56.80;;;;;;5000289;28;20207;-61
2024/03/16 04:50:44;;;;;;;1.10;1.10;;;9.80;56.80;;;;;;5002927;28;20266;-61
2024/03/16 04:53:12;;;;;;;0.90;0.90;;;9.90;56.50;;;;;;5011961;28;20220;-61
2024/03/16 04:55:39;;;;;;;1.03;1.03;;;9.80;56.60;;;;;;5010517;28;20273;-61
2024/03/16 04:58:07;;;;;;;1.10;1.10;;;9.80;56.70;;;;;;5011926;28;20216;-61
2024/03/16 05:00:34;;;;;;;1.10;1.10;;;9.80;56.90;;;;;;5009604;28;20579;-61
2024/03/16 05:03:01;;;;;;;1.10;1.10;;;9.80;56.40;;;;;;5002781;28;20246;-61
2024/03/16 05:05:27;;;;;;;1.17;1.17;;;9.90;56.80;;;;;;5002675;28;20204;-60
2024/03/16 05:07:54;;;;;;;1.00;1.00;;;9.90;56.60;;;;;;5008181;28;20672;-61
2024/03/16 05:10:20;;;;;;;1.30;1.30;;;9.90;56.20;;;;;;5012309;28;20219;-61
2024/03/16 05:12:47;;;;;;;1.10;1.10;;;10.00;54.70;;;;;;5006532;28;20223;-61
2024/03/16 05:15:14;;;;;;;1.10;1.10;;;10.00;54.60;;;;;;5010759;28;20594;-59
2024/03/16 05:17:40;;;;;;;1.10;1.10;;;9.90;55.70;;;;;;5009116;28;20299;-61
2024/03/16 05:20:09;;;;;;;1.60;1.27;;;10.10;54.40;;;;;;5011628;28;20211;-61
2024/03/16 05:22:35;;;;;;;1.20;1.20;;;10.10;54.10;;;;;;5005873;28;20229;-61
2024/03/16 05:25:02;;;;;;;1.10;1.10;;;10.00;54.30;;;;;;5006540;28;20214;-60
2024/03/16 05:27:28;;;;;;;1.20;1.20;;;10.10;53.60;;;;;;5010805;28;20212;-61
2024/03/16 05:29:55;;;;;;;1.00;1.00;;;10.10;53.90;;;;;;5012117;28;20641;-61
2024/03/16 05:32:22;;;;;;;1.00;1.00;;;10.00;54.40;;;;;;5002083;28;20219;-61
2024/03/16 05:34:49;;;;;;;1.00;1.00;;;10.00;53.80;;;;;;5003699;28;20204;-61
2024/03/16 05:37:16;;;;;;;1.10;1.10;;;10.00;53.90;;;;;;5006341;28;20203;-61
2024/03/16 05:39:42;;;;;;;1.10;1.10;;;10.00;54.10;;;;;;5010151;28;20360;-61
2024/03/16 05:42:11;;;;;;;1.20;1.20;;;10.10;54.50;;;;;;5009490;28;20228;-61
2024/03/16 05:44:37;;;;;;;1.43;1.10;;;10.10;53.90;;;;;;5011694;28;20209;-61
2024/03/16 05:47:04;;;;;;;1.10;1.10;;;10.10;54.10;;;;;;5008610;28;20199;-61
2024/03/16 05:49:31;;;;;;;1.13;1.13;;;10.20;53.80;;;;;;5010505;28;20204;-61
2024/03/16 05:51:57;;;;;;;1.20;1.20;;;10.20;53.90;;;;;;5011793;28;20322;-60
2024/03/16 05:54:24;;;;;;;0.90;0.90;;;10.10;53.90;;;;;;5003633;28;20219;-60
2024/03/16 05:56:51;;;;;;;1.17;1.10;;;10.10;54.10;;;;;;5008093;28;20212;-61
2024/03/16 05:59:17;;;;;;;1.00;1.00;;;10.00;54.30;;;;;;5011859;28;20210;-61
2024/03/16 06:01:45;;;;;;;1.00;1.00;;;10.10;54.20;;;;;;5009251;28;20239;-61
2024/03/16 06:04:11;;;;;;;1.00;1.00;;;10.10;54.00;;;;;;5011505;28;20212;-61
2024/03/16 06:06:38;;;;;;;1.20;1.20;;;10.10;53.90;;;;;;5004276;28;20218;-61
2024/03/16 06:09:04;;;;;;;1.20;1.20;;;10.10;54.00;;;;;;5011219;28;20676;-61
2024/03/16 06:11:31;;;;;;;1.00;1.00;;;10.10;54.50;;;;;;5002956;28;20228;-61
2024/03/16 06:13:58;;;;;;;1.10;1.10;;;10.00;55.10;;;;;;5009689;28;20201;-61
2024/03/16 06:16:25;;;;;;;1.10;1.10;;;10.10;54.00;;;;;;5013675;28;20303;-61
2024/03/16 06:18:51;;;;;;;1.33;1.10;;;10.20;54.20;;;;;;5016156;28;20231;-61
2024/03/16 06:21:18;;;;;;;1.57;1.20;;;10.10;53.70;;;;;;5013339;28;20208;-61
2024/03/16 06:23:46;;;;;;;1.10;1.10;;;10.30;54.00;;;;;;5007745;28;20721;-61
2024/03/16 06:26:17;;;;;;;1.03;1.00;;;10.20;53.70;;;;;;5013781;28;20201;-61
2024/03/16 06:28:47;;;;;;;1.10;1.10;;;10.40;53.60;;;;;;5009046;28;20212;-61
2024/03/16 06:31:13;;;;;;;1.10;1.10;;;10.60;53.00;;;;;;5011505;28;20568;-61
2024/03/16 06:33:45;;;;;;;1.10;1.10;;;10.80;52.10;;;;;;5014186;28;20215;-61
2024/03/16 06:36:11;;;;;;;1.10;1.10;;;10.70;52.80;;;;;;5004558;28;20201;-61
2024/03/16 06:38:38;;;;;;;1.47;1.37;;;10.80;52.20;;;;;;5011175;28;20553;-61
2024/03/16 06:41:05;;;;;;;1.63;1.10;;;10.90;52.00;;;;;;5012179;28;20209;-61
2024/03/16 06:43:32;;;;;;;1.10;1.10;;;11.00;51.50;;;;;;5008679;28;20226;-60
2024/03/16 06:46:00;;;;;;;1.10;1.10;;;10.90;51.40;;;;;;5011839;28;20268;-61
2024/03/16 06:48:27;;;;;;;1.40;1.30;;;11.20;51.50;;;;;;5004955;28;20316;-61
2024/03/16 06:50:53;;;;;;;1.20;1.20;;;11.40;51.20;;;;;;5010965;28;20214;-61
2024/03/16 06:53:20;;;;;;;0.90;0.90;;;11.40;50.70;;;;;;4999917;28;20575;-61
2024/03/16 06:55:46;;;;;;;1.20;1.20;;;11.50;50.20;;;;;;5006825;28;20217;-61
2024/03/16 06:58:13;;;;;;;0.80;0.80;;;11.80;50.00;;;;;;5008562;28;20554;-61
2024/03/16 07:00:40;;;;;;;1.30;1.20;;;11.80;50.30;;;;;;4993355;28;20682;-61
2024/03/16 07:03:06;;;;;;;1.10;1.10;;;12.00;49.70;;;;;;5006419;28;20231;-60
2024/03/16 07:05:33;;;;;;;1.20;1.20;;;12.10;49.80;;;;;;5010673;28;20208;-61
2024/03/16 07:08:00;;;;;;;1.20;1.20;;;12.20;49.50;;;;;;5007321;28;20216;-61
2024/03/16 07:10:26;;;;;;;1.30;1.20;;;12.50;49.00;;;;;;5005814;28;20620;-61
2024/03/16 07:12:53;;;;;;;1.10;1.10;;;12.30;48.80;;;;;;5009377;28;20219;-60
2024/03/16 07:15:20;;;;;;;1.17;1.10;;;12.50;48.90;;;;;;5005757;28;20204;-61
2024/03/16 07:17:46;;;;;;;0.80;0.80;;;12.70;48.40;;;;;;5009202;28;20297;-60
2024/03/16 07:20:14;;;;;;;1.20;1.20;;;12.30;49.00;;;;;;5007845;28;20293;-59
2024/03/16 07:22:41;;;;;;;1.10;1.10;;;12.10;49.70;;;;;;5011177;28;20665;-60
2024/03/16 07:25:08;;;;;;;1.00;1.00;;;12.20;50.30;;;;;;5001837;28;20222;-61
2024/03/16 07:27:34;;;;;;;1.00;1.00;;;12.30;50.00;;;;;;5010639;28;20559;-61
2024/03/16 07:30:01;;;;;;;1.10;1.00;;;12.40;49.80;;;;;;5011223;28;20212;-60
2024/03/16 07:32:28;;;;;;;1.27;1.27;;;12.70;49.70;;;;;;4999567;28;20311;-60
2024/03/16 07:34:54;;;;;;;1.10;1.00;;;12.80;48.90;;;;;;4999537;28;20205;-61
2024/03/16 07:37:21;;;;;;;0.90;0.90;;;13.10;48.20;;;;;;5012938;28;20210;-60
2024/03/16 07:39:48;;;;;;;1.00;1.00;;;13.00;48.40;;;;;;5012349;28;20216;-61
2024/03/16 07:42:14;;;;;;;1.00;0.93;;;13.00;48.60;;;;;;5007309;28;20909;-61
2024/03/16 07:44:41;;;;;;;1.27;1.23;;;13.00;48.70;;;;;;5006806;28;20211;-61
2024/03/16 07:47:08;;;;;;;1.57;1.27;;;12.90;49.00;;;;;;5007916;28;20209;-61
2024/03/16 07:49:34;;;;;;;1.10;1.10;;;12.70;49.20;;;;;;5013769;28;20211;-61
2024/03/16 07:52:02;;;;;;;1.13;0.90;;;12.70;50.20;;;;;;5007757;28;20240;-61
2024/03/16 07:54:29;;;;;;;1.10;1.10;;;12.80;49.30;;;;;;5008040;28;20212;-61
2024/03/16 07:56:55;;;;;;;1.10;1.00;;;12.80;49.40;;;;;;5348195;22;20463;-58
2024/03/16 07:59:22;;;;;;;0.90;0.90;;;12.60;49.80;;;;;;4982875;28;20536;-60
2024/03/16 08:01:49;;;;;;;1.53;1.00;;;12.60;49.70;;;;;;4968646;28;20324;-55
2024/03/16 08:04:15;;;;;;;2.23;1.30;;;13.50;50.40;;;;;;4968326;28;20225;-57
2024/03/16 08:06:42;;;;;;;0.97;0.97;;;14.50;47.70;;;;;;4965978;28;20218;-60
2024/03/16 08:09:11;;;;;;;1.10;1.00;;;13.80;47.20;;;;;;4964238;28;20208;-60
2024/03/16 08:11:38;;;;;;;1.27;1.00;;;13.50;47.70;;;;;;4964171;28;20223;-60
2024/03/16 08:14:08;;;;;;;1.30;1.20;;;13.60;47.50;;;;;;4970844;28;20206;-60
2024/03/16 08:16:34;;;;;;;1.47;1.37;;;14.00;46.80;;;;;;4972729;28;20208;-60
2024/03/16 08:19:01;;;;;;;0.97;0.97;;;14.00;47.00;;;;;;4972536;28;20217;-60
2024/03/16 08:21:28;;;;;;;1.00;1.00;;;13.80;46.80;;;;;;4973234;28;20315;-60
2024/03/16 08:23:54;;;;;;;1.03;0.90;;;13.60;47.30;;;;;;4973374;28;20715;-60
2024/03/16 08:28:55;;;;;;;0.97;0.97;;;13.80;47.90;;;;;;4971222;28;20283;-61
2024/03/16 08:31:22;;;;;;;0.93;0.93;;;13.80;47.00;;;;;;4972965;28;20234;-60
2024/03/16 08:33:48;;;;;;;0.80;0.80;;;13.80;47.30;;;;;;4972547;28;20219;-61
2024/03/16 08:36:15;;;;;;;1.20;1.10;;;13.60;47.70;;;;;;4966258;28;20303;-60
2024/03/16 08:38:41;;;;;;;1.37;1.00;;;13.70;47.80;;;;;;4969811;28;20222;-61
2024/03/16 08:41:08;;;;;;;1.20;1.10;;;13.60;47.70;;;;;;4968700;28;20208;-61
2024/03/16 08:43:35;;;;;;;1.20;1.20;;;13.50;47.60;;;;;;4966753;28;20606;-61
2024/03/16 08:46:01;;;;;;;1.10;1.00;;;13.50;47.70;;;;;;4972695;28;20205;-60
2024/03/16 08:48:28;;;;;;;1.30;1.20;;;13.50;47.70;;;;;;4967700;28;20218;-61
2024/03/16 08:50:54;;;;;;;1.00;1.00;;;13.50;48.10;;;;;;4966161;28;20295;-60
2024/03/16 08:53:21;;;;;;;1.10;1.10;;;13.70;47.80;;;;;;4960789;28;20296;-61
2024/03/16 08:55:47;;;;;;;1.60;1.10;;;13.60;47.70;;;;;;4965032;28;20216;-60
2024/03/16 08:58:14;;;;;;;1.20;1.10;;;13.70;47.80;;;;;;4971011;28;20686;-61
2024/03/16 09:00:41;;;;;;;0.80;0.80;;;13.90;47.30;;;;;;4973017;28;20212;-61
2024/03/16 09:03:08;;;;;;;1.43;1.10;;;13.90;47.10;;;;;;4972818;28;20229;-61
2024/03/16 09:05:34;;;;;;;1.43;1.33;;;13.50;48.00;;;;;;4972918;28;20225;-61
2024/03/16 09:08:02;;;;;;;1.40;1.30;;;13.60;47.70;;;;;;4972663;28;20578;-61
2024/03/16 09:10:28;;;;;;;1.70;1.30;;;13.50;47.60;;;;;;4968996;28;20571;-61
2024/03/16 09:12:55;;;;;;;1.37;1.27;;;13.80;47.20;;;;;;4973255;28;20231;-61
2024/03/16 09:15:22;;;;;;;3.23;1.20;;;14.70;45.90;;;;;;4968619;28;20581;-61
2024/03/16 09:17:48;;;;;;;1.90;1.20;;;14.40;45.90;;;;;;4969177;28;20236;-62
2024/03/16 09:20:15;;;;;;;2.93;1.20;;;14.60;45.20;;;;;;4966658;28;20675;-60
2024/03/16 09:22:42;;;;;;;1.20;1.10;;;14.40;45.30;;;;;;4967870;28;20238;-61
2024/03/16 09:25:08;;;;;;;1.87;1.27;;;14.30;45.40;;;;;;4968861;28;20271;-60
2024/03/16 09:27:35;;;;;;;2.10;1.00;;;14.30;45.70;;;;;;4966604;28;20221;-62
2024/03/16 09:30:04;;;;;;;1.20;1.10;;;14.50;46.30;;;;;;4968671;28;20599;-60
2024/03/16 09:32:31;;;;;;;2.90;1.20;;;14.00;46.20;;;;;;4967062;28;20228;-62
2024/03/16 09:34:58;;;;;;;3.07;1.10;;;13.80;47.10;;;;;;4964762;28;20204;-61
2024/03/16 09:37:25;;;;;;;1.30;1.20;;;13.70;46.70;;;;;;4966104;28;20209;-60
2024/03/16 09:39:52;;;;;;;1.93;1.30;;;13.60;47.10;;;;;;4970768;28;20209;-60
2024/03/16 09:42:21;;;;;;;1.47;1.30;;;13.70;47.80;;;;;;4972063;28;20234;-61
2024/03/16 09:44:48;;;;;;;1.20;1.10;;;13.40;47.70;;;;;;4966848;28;20247;-60
2024/03/16 09:47:14;;;;;;;1.87;1.40;;;13.30;47.90;;;;;;4971765;28;20223;-61
2024/03/16 09:49:41;;;;;;;1.20;1.10;;;13.50;47.60;;;;;;4974246;28;20254;-61
2024/03/16 09:52:10;;;;;;;2.07;1.20;;;13.50;47.60;;;;;;4972415;28;20231;-59
2024/03/16 09:54:37;;;;;;;1.53;1.20;;;13.80;46.60;;;;;;4973722;28;20209;-61
2024/03/16 09:57:04;;;;;;;3.50;1.43;;;14.40;45.40;;;;;;4971821;28;20216;-61
2024/03/16 09:59:31;;;;;;;2.60;1.20;;;14.60;44.20;;;;;;4973289;28;20230;-60
2024/03/16 10:01:57;;;;;;;1.50;1.20;;;14.50;44.50;;;;;;4971106;28;20230;-61
2024/03/16 10:04:24;;;;;;;3.97;1.30;;;14.30;45.00;;;;;;4976646;28;20232;-61
2024/03/16 10:06:51;;;;;;;2.00;1.50;;;15.40;43.90;;;;;;4976886;28;20250;-60
2024/03/16 10:09:18;;;;;;;1.63;1.27;;;16.50;40.80;;;;;;4976895;28;20274;-61
2024/03/16 10:11:44;;;;;;;2.60;1.50;;;16.20;40.70;;;;;;4976457;28;20236;-61
2024/03/16 10:14:11;;;;;;;2.43;1.40;;;16.40;40.50;;;;;;4976186;28;20594;-60
2024/03/16 10:16:40;;;;;;;2.67;1.40;;;16.00;41.30;;;;;;4971523;28;20671;-61
2024/03/16 10:19:07;;;;;;;2.03;1.20;;;15.90;40.50;;;;;;4968800;28;20214;-61
2024/03/16 10:21:33;;;;;;;1.77;1.27;;;15.50;41.30;;;;;;4976212;28;20365;-61
2024/03/16 10:24:00;;;;;;;3.03;1.30;;;14.70;42.60;;;;;;4975990;28;20589;-62
2024/03/16 10:26:30;;;;;;;2.40;1.30;;;14.60;43.80;;;;;;4976355;28;20277;-60
2024/03/16 10:28:56;;;;;;;1.30;1.20;;;14.60;42.90;;;;;;4967914;28;20231;-60
2024/03/16 10:31:23;;;;;;;1.47;1.23;;;14.50;43.30;;;;;;4976581;28;20668;-60
2024/03/16 10:33:49;;;;;;;1.47;1.37;;;14.10;43.50;;;;;;4969110;28;20206;-60
2024/03/16 10:36:17;;;;;;;1.07;1.07;;;14.00;43.90;;;;;;4969712;28;20213;-59
2024/03/16 10:38:44;;;;;;;2.63;1.40;;;14.20;43.60;;;;;;4975990;28;20207;-61
2024/03/16 10:41:11;;;;;;;1.23;1.13;;;14.60;42.60;;;;;;4975299;28;20213;-61
2024/03/16 10:43:38;;;;;;;2.60;1.10;;;14.80;42.00;;;;;;4974838;28;20234;-61
2024/03/16 10:46:05;;;;;;;1.67;1.10;;;15.00;41.40;;;;;;4971026;28;20213;-59
2024/03/16 10:48:32;;;;;;;1.20;1.00;;;15.10;41.30;;;;;;4967924;28;20209;-62
2024/03/16 10:51:00;;;;;;;2.27;1.30;;;15.50;41.30;;;;;;4969977;28;20297;-61
2024/03/16 10:53:27;;;;;;;2.60;1.30;;;15.70;40.30;;;;;;4974414;28;20240;-62
2024/03/16 10:55:53;;;;;;;1.80;1.30;;;15.60;40.20;;;;;;4974820;28;20208;-61
2024/03/16 10:58:20;;;;;;;2.30;1.20;;;16.50;55.70;;;;;;4963270;28;20311;-61
2024/03/16 11:00:47;;;;;;;1.53;0.93;;;16.20;55.60;;;;;;4944063;28;20692;-61
2024/03/16 11:03:22;;;;;;;1.57;1.30;;;15.40;57.10;;;;;;4967219;28;20309;-61
2024/03/16 11:05:54;;;;;;;1.87;1.10;;;15.10;57.80;;;;;;4965136;28;20566;-61
2024/03/16 11:08:27;;;;;;;1.03;0.90;;;15.10;57.80;;;;;;4961348;28;20214;-60
2024/03/16 11:10:53;;;;;;;2.67;1.07;;;15.10;57.80;;;;;;4963938;28;20208;-61
2024/03/16 11:13:20;;;;;;;1.73;1.50;;;14.70;58.30;;;;;;4976843;28;20223;-60
2024/03/16 11:15:47;;;;;;;1.30;1.10;;;14.50;59.40;;;;;;4947157;28;20255;-58
2024/03/16 11:18:12;;;;;;;1.97;1.20;;;16.00;56.50;;;;;;4966432;28;20232;-61
2024/03/16 11:20:39;;;;;;;1.43;1.00;;;17.10;54.20;;;;;;4973581;28;20201;-61
2024/03/16 11:23:05;;;;;;;1.17;1.00;;;15.70;55.80;;;;;;4959596;28;20225;-61
2024/03/16 11:25:32;;;;;;;6.20;1.30;;;15.20;57.30;;;;;;4963002;28;20227;-62
2024/03/16 11:27:59;;;;;;;1.90;1.00;;;14.90;57.70;;;;;;4966498;28;20215;-61
2024/03/16 11:30:25;;;;;;;1.10;1.00;;;14.50;58.50;;;;;;4965563;28;20492;-61
2024/03/16 11:32:52;;;;;;;1.00;0.90;;;14.30;59.20;;;;;;4971425;28;20785;-61
2024/03/16 11:35:19;;;;;;;1.17;1.07;;;14.20;59.70;;;;;;4972602;28;20233;-61
2024/03/16 11:37:46;;;;;;;1.20;1.10;;;14.20;60.40;;;;;;4971095;28;20583;-61
2024/03/16 11:40:11;;;;;;;1.00;1.00;;;14.20;59.70;;;;;;4971734;28;20677;-61
2024/03/16 11:42:38;;;;;;;0.87;0.87;;;14.10;59.90;;;;;;4970461;28;20222;-61
2024/03/16 11:45:04;;;;;;;1.10;1.10;;;14.00;60.00;;;;;;4971135;28;20235;-61
2024/03/16 11:47:30;;;;;;;1.03;1.03;;;14.20;59.70;;;;;;4972999;28;20211;-61
2024/03/16 11:49:56;;;;;;;1.00;1.00;;;14.30;60.10;;;;;;4972738;28;20219;-61
2024/03/16 11:52:22;;;;;;;0.87;0.80;;;13.90;60.60;;;;;;4970737;28;20231;-61
2024/03/16 11:54:48;;;;;;;1.00;1.00;;;13.80;60.90;;;;;;4966270;28;20228;-61
2024/03/16 11:57:15;;;;;;;0.83;0.83;;;13.90;61.20;;;;;;4971532;28;20243;-63
2024/03/16 11:59:40;;;;;;;1.30;1.20;;;13.80;61.40;;;;;;4968829;28;20220;-61
2024/03/16 12:02:07;;;;;;;1.20;1.10;;;14.00;61.50;;;;;;4965127;28;20339;-61
2024/03/16 12:04:33;;;;;;;1.17;1.07;;;14.40;60.50;;;;;;4969035;28;20264;-61
2024/03/16 12:07:00;;;;;;;1.00;1.00;;;14.90;58.90;;;;;;4967104;28;20235;-61
2024/03/16 12:09:30;;;;;;;1.10;0.90;;;14.70;59.10;;;;;;4970351;28;20217;-62
2024/03/16 12:11:57;;;;;;;1.53;1.00;;;14.50;60.00;;;;;;4971446;28;20226;-60
2024/03/16 12:14:22;;;;;;;1.10;0.90;;;14.40;60.60;;;;;;4967367;28;20233;-60
2024/03/16 12:16:49;;;;;;;0.97;0.90;;;14.10;60.50;;;;;;4968913;28;20289;-60
2024/03/16 12:19:15;;;;;;;0.90;0.90;;;14.70;59.40;;;;;;4963354;28;20302;-61
2024/03/16 12:21:44;;;;;;;1.07;1.00;;;;;;;;;;4967709;28;20232;-63
2024/03/16 12:24:11;;;;;;;1.25;0.85;;;;;;;;;;4971517;28;20679;-62
2024/03/16 12:26:41;;;;;;;1.40;0.70;;;;;;;;;;4968697;28;20697;-61
2024/03/16 12:29:07;;;;;;;0.80;0.80;;;;;;;;;;4961559;28;21667;-61
2024/03/16 12:31:34;;;;;;;0.70;0.70;;;16.90;77.50;;;;;;4973388;28;20225;-60
2024/03/16 12:33:59;;;;;;;1.20;0.90;;;16.70;75.30;;;;;;4963362;28;20207;-61
2024/03/16 12:36:26;;;;;;;1.90;1.00;;;16.00;75.10;;;;;;4967428;28;20208;-61
2024/03/16 12:38:53;;;;;;;1.07;1.07;;;15.70;75.80;;;;;;4964294;28;20313;-61
2024/03/16 12:41:19;;;;;;;2.00;1.17;;;15.20;74.60;;;;;;4970192;28;20236;-61
2024/03/16 12:43:45;;;;;;;1.53;1.40;;;14.80;57.60;;;;;;4969306;28;20251;-62
2024/03/16 12:46:11;;;;;;;1.37;0.90;;;14.80;60.70;;;;;;4970278;28;20740;-62
2024/03/16 12:48:39;;;;;;;2.40;1.20;;;14.80;66.80;;;;;;4972376;28;20516;-62
2024/03/16 12:51:04;;;;;;;2.80;1.60;;;14.50;61.30;;;;;;4973511;28;20200;-61